sensor_id;sensor_type;location;lat;lon;timestamp;P1;durP1;ratioP1;P2;durP2;ratioP2
47922;SDS011;33688;44.354;9.228;2023-07-29T00:02:12;0.95;;;0.77;;
47922;SDS011;33688;44.354;9.228;2023-07-29T00:04:38;0.90;;;0.68;;
47922;SDS011;33688;44.354;9.228;2023-07-29T00:07:04;1.02;;;0.93;;
47922;SDS011;33688;44.354;9.228;2023-07-29T00:09:30;0.88;;;0.68;;
47922;SDS011;33688;44.354;9.228;2023-07-29T00:11:56;0.60;;;0.60;;
47922;SDS011;33688;44.354;9.228;2023-07-29T00:14:22;0.75;;;0.60;;
47922;SDS011;33688;44.354;9.228;2023-07-29T00:16:48;0.98;;;0.75;;
47922;SDS011;33688;44.354;9.228;2023-07-29T00:19:13;1.33;;;0.90;;
47922;SDS011;33688;44.354;9.228;2023-07-29T00:21:39;0.60;;;0.60;;
47922;SDS011;33688;44.354;9.228;2023-07-29T00:24:06;1.17;;;0.90;;
47922;SDS011;33688;44.354;9.228;2023-07-29T00:26:32;0.70;;;0.70;;
47922;SDS011;33688;44.354;9.228;2023-07-29T00:28:58;1.35;;;1.25;;
47922;SDS011;33688;44.354;9.228;2023-07-29T00:31:24;1.30;;;0.82;;
47922;SDS011;33688;44.354;9.228;2023-07-29T00:33:50;1.38;;;0.77;;
47922;SDS011;33688;44.354;9.228;2023-07-29T00:36:17;0.90;;;0.80;;
47922;SDS011;33688;44.354;9.228;2023-07-29T00:38:44;0.65;;;0.65;;
47922;SDS011;33688;44.354;9.228;2023-07-29T00:41:10;0.85;;;0.77;;
47922;SDS011;33688;44.354;9.228;2023-07-29T00:43:40;1.13;;;0.82;;
47922;SDS011;33688;44.354;9.228;2023-07-29T00:46:06;1.08;;;0.95;;
47922;SDS011;33688;44.354;9.228;2023-07-29T00:48:35;0.85;;;0.82;;
47922;SDS011;33688;44.354;9.228;2023-07-29T00:51:01;0.95;;;0.70;;
47922;SDS011;33688;44.354;9.228;2023-07-29T00:53:27;0.60;;;0.60;;
47922;SDS011;33688;44.354;9.228;2023-07-29T00:55:53;1.42;;;0.80;;
47922;SDS011;33688;44.354;9.228;2023-07-29T00:58:19;0.68;;;0.60;;
47922;SDS011;33688;44.354;9.228;2023-07-29T01:00:44;1.25;;;0.68;;
47922;SDS011;33688;44.354;9.228;2023-07-29T01:03:10;1.40;;;1.10;;
47922;SDS011;33688;44.354;9.228;2023-07-29T01:08:41;0.53;;;0.53;;
47922;SDS011;33688;44.354;9.228;2023-07-29T01:14:17;0.50;;;0.50;;
47922;SDS011;33688;44.354;9.228;2023-07-29T01:17:00;1.00;;;0.88;;
47922;SDS011;33688;44.354;9.228;2023-07-29T01:22:31;0.60;;;0.60;;
47922;SDS011;33688;44.354;9.228;2023-07-29T01:25:02;0.90;;;0.90;;
47922;SDS011;33688;44.354;9.228;2023-07-29T01:27:29;0.55;;;0.52;;
47922;SDS011;33688;44.354;9.228;2023-07-29T01:29:56;0.68;;;0.68;;
47922;SDS011;33688;44.354;9.228;2023-07-29T01:32:31;0.77;;;0.70;;
47922;SDS011;33688;44.354;9.228;2023-07-29T01:40:28;0.45;;;0.45;;
47922;SDS011;33688;44.354;9.228;2023-07-29T01:42:55;0.93;;;0.77;;
47922;SDS011;33688;44.354;9.228;2023-07-29T01:45:23;0.70;;;0.70;;
47922;SDS011;33688;44.354;9.228;2023-07-29T01:47:55;0.75;;;0.55;;
47922;SDS011;33688;44.354;9.228;2023-07-29T01:50:20;0.68;;;0.63;;
47922;SDS011;33688;44.354;9.228;2023-07-29T01:52:47;0.60;;;0.60;;
47922;SDS011;33688;44.354;9.228;2023-07-29T01:55:13;1.48;;;1.02;;
47922;SDS011;33688;44.354;9.228;2023-07-29T01:57:39;1.10;;;1.00;;
47922;SDS011;33688;44.354;9.228;2023-07-29T02:00:05;0.60;;;0.60;;
47922;SDS011;33688;44.354;9.228;2023-07-29T02:02:39;0.80;;;0.50;;
47922;SDS011;33688;44.354;9.228;2023-07-29T02:07:55;0.60;;;0.60;;
47922;SDS011;33688;44.354;9.228;2023-07-29T02:10:20;0.57;;;0.57;;
47922;SDS011;33688;44.354;9.228;2023-07-29T02:12:46;0.68;;;0.68;;
47922;SDS011;33688;44.354;9.228;2023-07-29T02:15:13;0.75;;;0.60;;
47922;SDS011;33688;44.354;9.228;2023-07-29T02:17:40;0.70;;;0.70;;
47922;SDS011;33688;44.354;9.228;2023-07-29T02:20:07;0.43;;;0.43;;
47922;SDS011;33688;44.354;9.228;2023-07-29T02:22:34;0.73;;;0.73;;
47922;SDS011;33688;44.354;9.228;2023-07-29T02:25:00;0.60;;;0.60;;
47922;SDS011;33688;44.354;9.228;2023-07-29T02:27:26;0.90;;;0.80;;
47922;SDS011;33688;44.354;9.228;2023-07-29T02:29:55;0.70;;;0.70;;
47922;SDS011;33688;44.354;9.228;2023-07-29T02:32:23;0.70;;;0.70;;
47922;SDS011;33688;44.354;9.228;2023-07-29T02:34:49;0.50;;;0.50;;
47922;SDS011;33688;44.354;9.228;2023-07-29T02:37:15;0.85;;;0.50;;
47922;SDS011;33688;44.354;9.228;2023-07-29T02:39:40;0.90;;;0.70;;
47922;SDS011;33688;44.354;9.228;2023-07-29T02:42:06;0.77;;;0.55;;
47922;SDS011;33688;44.354;9.228;2023-07-29T02:47:21;0.50;;;0.50;;
47922;SDS011;33688;44.354;9.228;2023-07-29T02:49:49;0.60;;;0.60;;
47922;SDS011;33688;44.354;9.228;2023-07-29T02:52:15;0.70;;;0.65;;
47922;SDS011;33688;44.354;9.228;2023-07-29T02:54:42;0.88;;;0.60;;
47922;SDS011;33688;44.354;9.228;2023-07-29T02:57:08;0.52;;;0.52;;
47922;SDS011;33688;44.354;9.228;2023-07-29T02:59:34;0.52;;;0.52;;
47922;SDS011;33688;44.354;9.228;2023-07-29T03:02:00;1.42;;;0.80;;
47922;SDS011;33688;44.354;9.228;2023-07-29T03:04:25;0.50;;;0.50;;
47922;SDS011;33688;44.354;9.228;2023-07-29T03:06:51;0.50;;;0.50;;
47922;SDS011;33688;44.354;9.228;2023-07-29T03:09:17;0.55;;;0.55;;
47922;SDS011;33688;44.354;9.228;2023-07-29T03:11:43;0.73;;;0.60;;
47922;SDS011;33688;44.354;9.228;2023-07-29T03:14:09;0.80;;;0.63;;
47922;SDS011;33688;44.354;9.228;2023-07-29T03:16:36;0.60;;;0.50;;
47922;SDS011;33688;44.354;9.228;2023-07-29T03:19:01;0.57;;;0.47;;
47922;SDS011;33688;44.354;9.228;2023-07-29T03:21:27;0.60;;;0.60;;
47922;SDS011;33688;44.354;9.228;2023-07-29T03:23:53;0.50;;;0.50;;
47922;SDS011;33688;44.354;9.228;2023-07-29T03:26:19;0.50;;;0.50;;
47922;SDS011;33688;44.354;9.228;2023-07-29T03:28:45;0.70;;;0.70;;
47922;SDS011;33688;44.354;9.228;2023-07-29T03:31:13;0.60;;;0.60;;
47922;SDS011;33688;44.354;9.228;2023-07-29T03:33:38;0.68;;;0.68;;
47922;SDS011;33688;44.354;9.228;2023-07-29T03:36:04;0.40;;;0.40;;
47922;SDS011;33688;44.354;9.228;2023-07-29T03:38:31;0.65;;;0.50;;
47922;SDS011;33688;44.354;9.228;2023-07-29T03:40:58;0.77;;;0.70;;
47922;SDS011;33688;44.354;9.228;2023-07-29T03:46:08;0.50;;;0.50;;
47922;SDS011;33688;44.354;9.228;2023-07-29T03:48:35;0.55;;;0.55;;
47922;SDS011;33688;44.354;9.228;2023-07-29T03:51:01;0.57;;;0.50;;
47922;SDS011;33688;44.354;9.228;2023-07-29T03:53:27;0.63;;;0.63;;
47922;SDS011;33688;44.354;9.228;2023-07-29T03:55:53;0.55;;;0.50;;
47922;SDS011;33688;44.354;9.228;2023-07-29T03:58:19;0.70;;;0.63;;
47922;SDS011;33688;44.354;9.228;2023-07-29T04:00:45;0.68;;;0.60;;
47922;SDS011;33688;44.354;9.228;2023-07-29T04:03:10;0.77;;;0.60;;
47922;SDS011;33688;44.354;9.228;2023-07-29T04:05:36;1.15;;;0.50;;
47922;SDS011;33688;44.354;9.228;2023-07-29T04:08:02;0.73;;;0.32;;
47922;SDS011;33688;44.354;9.228;2023-07-29T04:10:28;0.68;;;0.68;;
47922;SDS011;33688;44.354;9.228;2023-07-29T04:12:57;0.60;;;0.60;;
47922;SDS011;33688;44.354;9.228;2023-07-29T04:15:22;1.08;;;0.77;;
47922;SDS011;33688;44.354;9.228;2023-07-29T04:17:48;0.60;;;0.60;;
47922;SDS011;33688;44.354;9.228;2023-07-29T04:20:14;0.63;;;0.63;;
47922;SDS011;33688;44.354;9.228;2023-07-29T04:22:41;0.60;;;0.50;;
47922;SDS011;33688;44.354;9.228;2023-07-29T04:25:06;0.30;;;0.30;;
47922;SDS011;33688;44.354;9.228;2023-07-29T04:30:22;0.45;;;0.45;;
47922;SDS011;33688;44.354;9.228;2023-07-29T04:32:49;0.30;;;0.30;;
47922;SDS011;33688;44.354;9.228;2023-07-29T04:35:15;0.60;;;0.50;;
47922;SDS011;33688;44.354;9.228;2023-07-29T04:37:41;0.82;;;0.73;;
47922;SDS011;33688;44.354;9.228;2023-07-29T04:40:06;0.63;;;0.63;;
47922;SDS011;33688;44.354;9.228;2023-07-29T04:42:33;0.65;;;0.57;;
47922;SDS011;33688;44.354;9.228;2023-07-29T04:44:58;0.38;;;0.38;;
47922;SDS011;33688;44.354;9.228;2023-07-29T04:47:25;0.43;;;0.43;;
47922;SDS011;33688;44.354;9.228;2023-07-29T04:49:51;1.95;;;0.85;;
47922;SDS011;33688;44.354;9.228;2023-07-29T04:52:17;0.63;;;0.60;;
47922;SDS011;33688;44.354;9.228;2023-07-29T04:54:44;0.65;;;0.65;;
47922;SDS011;33688;44.354;9.228;2023-07-29T04:57:10;0.68;;;0.57;;
47922;SDS011;33688;44.354;9.228;2023-07-29T04:59:37;0.50;;;0.50;;
47922;SDS011;33688;44.354;9.228;2023-07-29T05:02:04;0.50;;;0.50;;
47922;SDS011;33688;44.354;9.228;2023-07-29T05:04:30;0.40;;;0.40;;
47922;SDS011;33688;44.354;9.228;2023-07-29T05:06:57;0.30;;;0.30;;
47922;SDS011;33688;44.354;9.228;2023-07-29T05:09:23;0.70;;;0.65;;
47922;SDS011;33688;44.354;9.228;2023-07-29T05:11:48;0.60;;;0.60;;
47922;SDS011;33688;44.354;9.228;2023-07-29T05:14:14;0.50;;;0.40;;
47922;SDS011;33688;44.354;9.228;2023-07-29T05:16:42;0.40;;;0.40;;
47922;SDS011;33688;44.354;9.228;2023-07-29T05:19:08;0.75;;;0.60;;
47922;SDS011;33688;44.354;9.228;2023-07-29T05:21:34;0.40;;;0.40;;
47922;SDS011;33688;44.354;9.228;2023-07-29T05:24:00;1.10;;;0.40;;
47922;SDS011;33688;44.354;9.228;2023-07-29T05:26:25;0.63;;;0.60;;
47922;SDS011;33688;44.354;9.228;2023-07-29T05:28:52;0.40;;;0.40;;
47922;SDS011;33688;44.354;9.228;2023-07-29T05:31:17;0.65;;;0.63;;
47922;SDS011;33688;44.354;9.228;2023-07-29T05:33:43;0.45;;;0.45;;
47922;SDS011;33688;44.354;9.228;2023-07-29T05:36:09;0.50;;;0.47;;
47922;SDS011;33688;44.354;9.228;2023-07-29T05:38:35;0.50;;;0.50;;
47922;SDS011;33688;44.354;9.228;2023-07-29T05:41:01;1.08;;;0.73;;
47922;SDS011;33688;44.354;9.228;2023-07-29T05:43:27;0.70;;;0.70;;
47922;SDS011;33688;44.354;9.228;2023-07-29T05:45:54;1.45;;;0.63;;
47922;SDS011;33688;44.354;9.228;2023-07-29T05:48:21;0.70;;;0.60;;
47922;SDS011;33688;44.354;9.228;2023-07-29T05:50:48;0.43;;;0.43;;
47922;SDS011;33688;44.354;9.228;2023-07-29T05:53:15;0.50;;;0.50;;
47922;SDS011;33688;44.354;9.228;2023-07-29T05:55:40;0.65;;;0.50;;
47922;SDS011;33688;44.354;9.228;2023-07-29T05:58:06;0.90;;;0.60;;
47922;SDS011;33688;44.354;9.228;2023-07-29T06:00:34;0.30;;;0.30;;
47922;SDS011;33688;44.354;9.228;2023-07-29T06:03:01;0.35;;;0.35;;
47922;SDS011;33688;44.354;9.228;2023-07-29T06:05:26;0.45;;;0.45;;
47922;SDS011;33688;44.354;9.228;2023-07-29T06:07:53;0.55;;;0.40;;
47922;SDS011;33688;44.354;9.228;2023-07-29T06:10:19;0.60;;;0.50;;
47922;SDS011;33688;44.354;9.228;2023-07-29T06:12:45;0.52;;;0.52;;
47922;SDS011;33688;44.354;9.228;2023-07-29T06:15:12;0.52;;;0.50;;
47922;SDS011;33688;44.354;9.228;2023-07-29T06:17:39;0.50;;;0.50;;
47922;SDS011;33688;44.354;9.228;2023-07-29T06:20:06;0.73;;;0.60;;
47922;SDS011;33688;44.354;9.228;2023-07-29T06:22:32;0.57;;;0.57;;
47922;SDS011;33688;44.354;9.228;2023-07-29T06:24:58;2.67;;;0.93;;
47922;SDS011;33688;44.354;9.228;2023-07-29T06:29:52;0.45;;;0.45;;
47922;SDS011;33688;44.354;9.228;2023-07-29T06:32:18;1.10;;;0.60;;
47922;SDS011;33688;44.354;9.228;2023-07-29T06:34:44;0.60;;;0.60;;
47922;SDS011;33688;44.354;9.228;2023-07-29T06:37:09;0.55;;;0.55;;
47922;SDS011;33688;44.354;9.228;2023-07-29T06:39:35;1.15;;;0.60;;
47922;SDS011;33688;44.354;9.228;2023-07-29T06:42:01;0.77;;;0.60;;
47922;SDS011;33688;44.354;9.228;2023-07-29T06:44:27;0.70;;;0.70;;
47922;SDS011;33688;44.354;9.228;2023-07-29T06:46:53;3.38;;;0.60;;
47922;SDS011;33688;44.354;9.228;2023-07-29T06:49:18;0.63;;;0.40;;
47922;SDS011;33688;44.354;9.228;2023-07-29T06:51:44;0.40;;;0.40;;
47922;SDS011;33688;44.354;9.228;2023-07-29T06:54:10;0.35;;;0.30;;
47922;SDS011;33688;44.354;9.228;2023-07-29T06:56:35;0.63;;;0.63;;
47922;SDS011;33688;44.354;9.228;2023-07-29T06:59:02;0.52;;;0.52;;
47922;SDS011;33688;44.354;9.228;2023-07-29T07:01:27;0.50;;;0.50;;
47922;SDS011;33688;44.354;9.228;2023-07-29T07:03:54;0.50;;;0.50;;
47922;SDS011;33688;44.354;9.228;2023-07-29T07:06:23;0.50;;;0.50;;
47922;SDS011;33688;44.354;9.228;2023-07-29T07:08:50;0.95;;;0.50;;
47922;SDS011;33688;44.354;9.228;2023-07-29T07:11:16;0.60;;;0.43;;
47922;SDS011;33688;44.354;9.228;2023-07-29T07:13:43;0.60;;;0.50;;
47922;SDS011;33688;44.354;9.228;2023-07-29T07:16:09;0.63;;;0.63;;
47922;SDS011;33688;44.354;9.228;2023-07-29T07:18:35;0.50;;;0.50;;
47922;SDS011;33688;44.354;9.228;2023-07-29T07:21:00;0.50;;;0.50;;
47922;SDS011;33688;44.354;9.228;2023-07-29T07:23:27;0.45;;;0.45;;
47922;SDS011;33688;44.354;9.228;2023-07-29T07:25:53;0.90;;;0.60;;
47922;SDS011;33688;44.354;9.228;2023-07-29T07:28:18;0.80;;;0.50;;
47922;SDS011;33688;44.354;9.228;2023-07-29T07:30:44;0.63;;;0.63;;
47922;SDS011;33688;44.354;9.228;2023-07-29T07:33:10;0.57;;;0.50;;
47922;SDS011;33688;44.354;9.228;2023-07-29T07:35:35;0.63;;;0.60;;
47922;SDS011;33688;44.354;9.228;2023-07-29T07:38:01;0.73;;;0.50;;
47922;SDS011;33688;44.354;9.228;2023-07-29T07:40:30;0.73;;;0.68;;
47922;SDS011;33688;44.354;9.228;2023-07-29T07:42:56;0.55;;;0.50;;
47922;SDS011;33688;44.354;9.228;2023-07-29T07:45:22;0.80;;;0.50;;
47922;SDS011;33688;44.354;9.228;2023-07-29T07:47:48;0.55;;;0.55;;
47922;SDS011;33688;44.354;9.228;2023-07-29T07:50:14;0.80;;;0.52;;
47922;SDS011;33688;44.354;9.228;2023-07-29T07:52:39;0.82;;;0.70;;
47922;SDS011;33688;44.354;9.228;2023-07-29T07:55:05;1.67;;;0.52;;
47922;SDS011;33688;44.354;9.228;2023-07-29T07:57:31;0.73;;;0.52;;
47922;SDS011;33688;44.354;9.228;2023-07-29T07:59:57;0.82;;;0.55;;
47922;SDS011;33688;44.354;9.228;2023-07-29T08:02:23;1.35;;;1.00;;
47922;SDS011;33688;44.354;9.228;2023-07-29T08:04:49;0.82;;;0.50;;
47922;SDS011;33688;44.354;9.228;2023-07-29T08:07:17;1.10;;;0.80;;
47922;SDS011;33688;44.354;9.228;2023-07-29T08:09:43;5.53;;;1.20;;
47922;SDS011;33688;44.354;9.228;2023-07-29T08:12:09;0.60;;;0.50;;
47922;SDS011;33688;44.354;9.228;2023-07-29T08:14:34;0.98;;;0.73;;
47922;SDS011;33688;44.354;9.228;2023-07-29T08:17:01;1.58;;;0.60;;
47922;SDS011;33688;44.354;9.228;2023-07-29T08:19:28;0.77;;;0.75;;
47922;SDS011;33688;44.354;9.228;2023-07-29T08:21:53;0.68;;;0.63;;
47922;SDS011;33688;44.354;9.228;2023-07-29T08:24:19;1.65;;;0.68;;
47922;SDS011;33688;44.354;9.228;2023-07-29T08:26:45;1.50;;;0.82;;
47922;SDS011;33688;44.354;9.228;2023-07-29T08:29:11;3.25;;;0.82;;
47922;SDS011;33688;44.354;9.228;2023-07-29T08:31:37;6.07;;;0.90;;
47922;SDS011;33688;44.354;9.228;2023-07-29T08:34:06;1.20;;;0.82;;
47922;SDS011;33688;44.354;9.228;2023-07-29T08:36:34;5.35;;;0.70;;
47922;SDS011;33688;44.354;9.228;2023-07-29T08:39:00;2.70;;;1.00;;
47922;SDS011;33688;44.354;9.228;2023-07-29T08:44:30;5.30;;;1.42;;
47922;SDS011;33688;44.354;9.228;2023-07-29T08:47:10;0.88;;;0.75;;
47922;SDS011;33688;44.354;9.228;2023-07-29T08:49:39;2.30;;;0.90;;
47922;SDS011;33688;44.354;9.228;2023-07-29T08:52:06;1.02;;;0.68;;
47922;SDS011;33688;44.354;9.228;2023-07-29T08:54:34;1.42;;;0.80;;
47922;SDS011;33688;44.354;9.228;2023-07-29T08:57:00;1.58;;;0.63;;
47922;SDS011;33688;44.354;9.228;2023-07-29T08:59:27;1.45;;;1.00;;
47922;SDS011;33688;44.354;9.228;2023-07-29T09:01:55;1.17;;;1.05;;
47922;SDS011;33688;44.354;9.228;2023-07-29T09:04:22;0.70;;;0.70;;
47922;SDS011;33688;44.354;9.228;2023-07-29T09:06:51;2.10;;;1.17;;
47922;SDS011;33688;44.354;9.228;2023-07-29T09:09:18;1.08;;;0.98;;
47922;SDS011;33688;44.354;9.228;2023-07-29T09:11:44;1.38;;;0.95;;
47922;SDS011;33688;44.354;9.228;2023-07-29T09:14:10;1.73;;;0.90;;
47922;SDS011;33688;44.354;9.228;2023-07-29T09:19:24;0.90;;;0.70;;
47922;SDS011;33688;44.354;9.228;2023-07-29T09:21:54;1.23;;;1.10;;
47922;SDS011;33688;44.354;9.228;2023-07-29T09:24:22;2.35;;;1.02;;
47922;SDS011;33688;44.354;9.228;2023-07-29T09:29:35;0.98;;;0.77;;
47922;SDS011;33688;44.354;9.228;2023-07-29T09:34:47;2.08;;;1.02;;
47922;SDS011;33688;44.354;9.228;2023-07-29T09:37:17;1.77;;;1.00;;
47922;SDS011;33688;44.354;9.228;2023-07-29T09:39:47;1.30;;;0.80;;
47922;SDS011;33688;44.354;9.228;2023-07-29T09:42:18;4.82;;;1.40;;
47922;SDS011;33688;44.354;9.228;2023-07-29T09:44:46;1.27;;;1.17;;
47922;SDS011;33688;44.354;9.228;2023-07-29T09:47:22;1.45;;;1.10;;
47922;SDS011;33688;44.354;9.228;2023-07-29T09:49:50;1.60;;;1.25;;
47922;SDS011;33688;44.354;9.228;2023-07-29T09:52:17;3.53;;;1.30;;
47922;SDS011;33688;44.354;9.228;2023-07-29T09:54:44;2.95;;;1.13;;
47922;SDS011;33688;44.354;9.228;2023-07-29T09:57:17;3.28;;;1.20;;
47922;SDS011;33688;44.354;9.228;2023-07-29T09:59:55;2.70;;;1.55;;
47922;SDS011;33688;44.354;9.228;2023-07-29T10:02:22;1.35;;;1.08;;
47922;SDS011;33688;44.354;9.228;2023-07-29T10:04:50;1.25;;;1.15;;
47922;SDS011;33688;44.354;9.228;2023-07-29T10:07:18;3.17;;;1.30;;
47922;SDS011;33688;44.354;9.228;2023-07-29T10:09:46;1.73;;;1.20;;
47922;SDS011;33688;44.354;9.228;2023-07-29T10:12:13;2.15;;;1.30;;
47922;SDS011;33688;44.354;9.228;2023-07-29T10:14:41;2.78;;;1.38;;
47922;SDS011;33688;44.354;9.228;2023-07-29T10:17:08;3.67;;;1.27;;
47922;SDS011;33688;44.354;9.228;2023-07-29T10:19:34;1.38;;;1.27;;
47922;SDS011;33688;44.354;9.228;2023-07-29T10:22:01;2.03;;;1.42;;
47922;SDS011;33688;44.354;9.228;2023-07-29T10:24:33;1.95;;;1.50;;
47922;SDS011;33688;44.354;9.228;2023-07-29T10:27:01;1.80;;;1.25;;
47922;SDS011;33688;44.354;9.228;2023-07-29T10:29:31;1.95;;;1.67;;
47922;SDS011;33688;44.354;9.228;2023-07-29T10:32:02;1.40;;;1.10;;
47922;SDS011;33688;44.354;9.228;2023-07-29T10:34:30;2.13;;;1.27;;
47922;SDS011;33688;44.354;9.228;2023-07-29T10:36:59;1.92;;;1.30;;
47922;SDS011;33688;44.354;9.228;2023-07-29T10:39:25;1.83;;;1.50;;
47922;SDS011;33688;44.354;9.228;2023-07-29T10:47:37;1.17;;;1.08;;
47922;SDS011;33688;44.354;9.228;2023-07-29T10:49:58;4.57;;;1.60;;
47922;SDS011;33688;44.354;9.228;2023-07-29T10:55:00;2.42;;;1.67;;
47922;SDS011;33688;44.354;9.228;2023-07-29T10:57:30;2.60;;;1.70;;
47922;SDS011;33688;44.354;9.228;2023-07-29T11:00:04;2.20;;;1.30;;
47922;SDS011;33688;44.354;9.228;2023-07-29T11:02:35;2.47;;;1.60;;
47922;SDS011;33688;44.354;9.228;2023-07-29T11:05:06;1.33;;;1.23;;
47922;SDS011;33688;44.354;9.228;2023-07-29T11:07:46;1.40;;;1.17;;
47922;SDS011;33688;44.354;9.228;2023-07-29T11:10:13;1.38;;;1.27;;
47922;SDS011;33688;44.354;9.228;2023-07-29T11:15:20;1.90;;;1.48;;
47922;SDS011;33688;44.354;9.228;2023-07-29T11:17:51;1.35;;;1.23;;
47922;SDS011;33688;44.354;9.228;2023-07-29T11:20:23;1.35;;;1.25;;
47922;SDS011;33688;44.354;9.228;2023-07-29T11:22:56;1.83;;;1.48;;
47922;SDS011;33688;44.354;9.228;2023-07-29T11:25:26;2.08;;;1.13;;
47922;SDS011;33688;44.354;9.228;2023-07-29T11:27:57;2.17;;;1.60;;
47922;SDS011;33688;44.354;9.228;2023-07-29T11:30:26;1.77;;;1.40;;
47922;SDS011;33688;44.354;9.228;2023-07-29T11:32:54;1.67;;;1.45;;
47922;SDS011;33688;44.354;9.228;2023-07-29T11:35:21;1.70;;;1.60;;
47922;SDS011;33688;44.354;9.228;2023-07-29T11:37:48;1.75;;;1.65;;
47922;SDS011;33688;44.354;9.228;2023-07-29T11:40:17;2.70;;;1.67;;
47922;SDS011;33688;44.354;9.228;2023-07-29T11:42:45;1.30;;;1.20;;
47922;SDS011;33688;44.354;9.228;2023-07-29T11:45:13;1.80;;;1.27;;
47922;SDS011;33688;44.354;9.228;2023-07-29T11:47:39;1.52;;;1.42;;
47922;SDS011;33688;44.354;9.228;2023-07-29T11:50:08;2.13;;;1.63;;
47922;SDS011;33688;44.354;9.228;2023-07-29T11:52:36;2.33;;;1.50;;
47922;SDS011;33688;44.354;9.228;2023-07-29T11:55:04;1.50;;;1.30;;
47922;SDS011;33688;44.354;9.228;2023-07-29T11:57:31;1.67;;;1.50;;
47922;SDS011;33688;44.354;9.228;2023-07-29T12:00:04;1.30;;;1.20;;
47922;SDS011;33688;44.354;9.228;2023-07-29T12:02:38;1.40;;;1.30;;
47922;SDS011;33688;44.354;9.228;2023-07-29T12:05:06;1.77;;;1.48;;
47922;SDS011;33688;44.354;9.228;2023-07-29T12:07:34;1.25;;;1.15;;
47922;SDS011;33688;44.354;9.228;2023-07-29T12:10:01;2.40;;;1.38;;
47922;SDS011;33688;44.354;9.228;2023-07-29T12:12:28;1.60;;;1.30;;
47922;SDS011;33688;44.354;9.228;2023-07-29T12:14:55;1.38;;;1.27;;
47922;SDS011;33688;44.354;9.228;2023-07-29T12:17:22;1.40;;;1.30;;
47922;SDS011;33688;44.354;9.228;2023-07-29T12:19:47;2.25;;;1.50;;
47922;SDS011;33688;44.354;9.228;2023-07-29T12:22:19;1.30;;;1.20;;
47922;SDS011;33688;44.354;9.228;2023-07-29T12:24:45;1.45;;;1.30;;
47922;SDS011;33688;44.354;9.228;2023-07-29T12:27:11;1.50;;;1.38;;
47922;SDS011;33688;44.354;9.228;2023-07-29T12:29:41;2.33;;;1.58;;
47922;SDS011;33688;44.354;9.228;2023-07-29T12:32:09;3.03;;;1.50;;
47922;SDS011;33688;44.354;9.228;2023-07-29T12:34:36;1.23;;;1.13;;
47922;SDS011;33688;44.354;9.228;2023-07-29T12:37:04;1.67;;;1.17;;
47922;SDS011;33688;44.354;9.228;2023-07-29T12:39:32;1.30;;;1.20;;
47922;SDS011;33688;44.354;9.228;2023-07-29T12:41:58;1.23;;;1.13;;
47922;SDS011;33688;44.354;9.228;2023-07-29T12:44:29;1.05;;;1.00;;
47922;SDS011;33688;44.354;9.228;2023-07-29T12:47:03;1.27;;;1.17;;
47922;SDS011;33688;44.354;9.228;2023-07-29T12:49:31;1.20;;;1.10;;
47922;SDS011;33688;44.354;9.228;2023-07-29T12:51:57;1.15;;;1.05;;
47922;SDS011;33688;44.354;9.228;2023-07-29T12:54:25;3.72;;;1.27;;
47922;SDS011;33688;44.354;9.228;2023-07-29T12:56:51;1.40;;;1.20;;
47922;SDS011;33688;44.354;9.228;2023-07-29T12:59:16;2.00;;;1.50;;
47922;SDS011;33688;44.354;9.228;2023-07-29T13:01:43;1.55;;;1.13;;
47922;SDS011;33688;44.354;9.228;2023-07-29T13:04:09;2.40;;;1.40;;
47922;SDS011;33688;44.354;9.228;2023-07-29T13:09:21;1.83;;;1.17;;
47922;SDS011;33688;44.354;9.228;2023-07-29T13:14:32;1.58;;;1.17;;
47922;SDS011;33688;44.354;9.228;2023-07-29T13:16:57;2.03;;;1.30;;
47922;SDS011;33688;44.354;9.228;2023-07-29T13:19:23;2.33;;;1.60;;
47922;SDS011;33688;44.354;9.228;2023-07-29T13:24:33;2.25;;;1.70;;
47922;SDS011;33688;44.354;9.228;2023-07-29T13:26:59;2.35;;;1.30;;
47922;SDS011;33688;44.354;9.228;2023-07-29T13:29:25;1.42;;;0.93;;
47922;SDS011;33688;44.354;9.228;2023-07-29T13:31:50;2.55;;;1.45;;
47922;SDS011;33688;44.354;9.228;2023-07-29T13:34:16;2.10;;;1.30;;
47922;SDS011;33688;44.354;9.228;2023-07-29T13:36:43;1.67;;;1.23;;
47922;SDS011;33688;44.354;9.228;2023-07-29T13:39:08;2.50;;;1.27;;
47922;SDS011;33688;44.354;9.228;2023-07-29T13:41:34;1.35;;;0.93;;
47922;SDS011;33688;44.354;9.228;2023-07-29T13:44:00;1.90;;;1.25;;
47922;SDS011;33688;44.354;9.228;2023-07-29T13:49:12;1.10;;;0.90;;
47922;SDS011;33688;44.354;9.228;2023-07-29T13:51:40;1.13;;;0.98;;
47922;SDS011;33688;44.354;9.228;2023-07-29T13:54:07;2.13;;;1.30;;
47922;SDS011;33688;44.354;9.228;2023-07-29T13:56:33;1.27;;;1.13;;
47922;SDS011;33688;44.354;9.228;2023-07-29T13:58:59;1.15;;;1.05;;
47922;SDS011;33688;44.354;9.228;2023-07-29T14:01:26;1.60;;;1.13;;
47922;SDS011;33688;44.354;9.228;2023-07-29T14:03:51;1.30;;;1.20;;
47922;SDS011;33688;44.354;9.228;2023-07-29T14:06:18;1.48;;;0.93;;
47922;SDS011;33688;44.354;9.228;2023-07-29T14:08:44;1.95;;;1.40;;
47922;SDS011;33688;44.354;9.228;2023-07-29T14:11:09;1.77;;;1.38;;
47922;SDS011;33688;44.354;9.228;2023-07-29T14:13:35;1.58;;;1.30;;
47922;SDS011;33688;44.354;9.228;2023-07-29T14:16:02;1.98;;;1.05;;
47922;SDS011;33688;44.354;9.228;2023-07-29T14:18:28;2.20;;;1.20;;
47922;SDS011;33688;44.354;9.228;2023-07-29T14:20:55;1.35;;;1.05;;
47922;SDS011;33688;44.354;9.228;2023-07-29T14:23:22;2.28;;;1.25;;
47922;SDS011;33688;44.354;9.228;2023-07-29T14:25:48;1.75;;;1.13;;
47922;SDS011;33688;44.354;9.228;2023-07-29T14:28:13;1.67;;;1.20;;
47922;SDS011;33688;44.354;9.228;2023-07-29T14:30:40;2.40;;;1.63;;
47922;SDS011;33688;44.354;9.228;2023-07-29T14:33:07;1.83;;;0.93;;
47922;SDS011;33688;44.354;9.228;2023-07-29T14:35:32;3.00;;;1.58;;
47922;SDS011;33688;44.354;9.228;2023-07-29T14:37:58;1.70;;;1.15;;
47922;SDS011;33688;44.354;9.228;2023-07-29T14:40:25;2.58;;;1.30;;
47922;SDS011;33688;44.354;9.228;2023-07-29T14:42:53;1.63;;;1.10;;
47922;SDS011;33688;44.354;9.228;2023-07-29T14:45:20;1.27;;;1.02;;
47922;SDS011;33688;44.354;9.228;2023-07-29T14:50:31;3.90;;;1.20;;
47922;SDS011;33688;44.354;9.228;2023-07-29T14:52:58;1.38;;;1.00;;
47922;SDS011;33688;44.354;9.228;2023-07-29T14:55:24;1.27;;;1.15;;
47922;SDS011;33688;44.354;9.228;2023-07-29T14:57:51;1.42;;;1.20;;
47922;SDS011;33688;44.354;9.228;2023-07-29T15:00:17;2.22;;;1.20;;
47922;SDS011;33688;44.354;9.228;2023-07-29T15:02:43;1.60;;;1.25;;
47922;SDS011;33688;44.354;9.228;2023-07-29T15:05:09;1.55;;;1.00;;
47922;SDS011;33688;44.354;9.228;2023-07-29T15:10:20;1.42;;;1.15;;
47922;SDS011;33688;44.354;9.228;2023-07-29T15:12:48;1.85;;;1.35;;
47922;SDS011;33688;44.354;9.228;2023-07-29T15:15:14;2.20;;;1.00;;
47922;SDS011;33688;44.354;9.228;2023-07-29T15:17:44;1.85;;;1.05;;
47922;SDS011;33688;44.354;9.228;2023-07-29T15:20:15;1.60;;;0.88;;
47922;SDS011;33688;44.354;9.228;2023-07-29T15:25:32;2.65;;;0.85;;
47922;SDS011;33688;44.354;9.228;2023-07-29T15:30:44;1.52;;;1.30;;
47922;SDS011;33688;44.354;9.228;2023-07-29T15:33:10;1.45;;;1.23;;
47922;SDS011;33688;44.354;9.228;2023-07-29T15:35:37;1.10;;;0.77;;
47922;SDS011;33688;44.354;9.228;2023-07-29T15:38:06;3.70;;;1.65;;
47922;SDS011;33688;44.354;9.228;2023-07-29T15:40:32;3.42;;;0.90;;
47922;SDS011;33688;44.354;9.228;2023-07-29T15:43:00;5.78;;;1.58;;
47922;SDS011;33688;44.354;9.228;2023-07-29T15:45:25;1.02;;;0.80;;
47922;SDS011;33688;44.354;9.228;2023-07-29T15:47:52;1.40;;;1.10;;
47922;SDS011;33688;44.354;9.228;2023-07-29T15:50:18;2.38;;;1.48;;
47922;SDS011;33688;44.354;9.228;2023-07-29T15:52:44;1.95;;;1.23;;
47922;SDS011;33688;44.354;9.228;2023-07-29T15:55:09;1.33;;;1.20;;
47922;SDS011;33688;44.354;9.228;2023-07-29T15:57:36;2.55;;;1.45;;
47922;SDS011;33688;44.354;9.228;2023-07-29T16:00:03;2.05;;;1.48;;